createdAt,value
2022-12-28T00:02:15.002Z,6.37
2022-12-28T00:04:43.436Z,6.30
2022-12-28T00:07:12.039Z,6.11
2022-12-28T00:09:40.406Z,6.15
2022-12-28T00:12:08.952Z,6.06
2022-12-28T00:14:37.280Z,5.92
2022-12-28T00:17:05.668Z,5.93
2022-12-28T00:19:33.969Z,6.08
2022-12-28T00:22:02.366Z,5.95
2022-12-28T00:24:30.855Z,5.93
2022-12-28T00:26:59.354Z,6.06
2022-12-28T00:29:27.735Z,6.14
2022-12-28T00:31:56.397Z,5.93
2022-12-28T00:34:25.694Z,5.95
2022-12-28T00:37:09.633Z,6.03
2022-12-28T00:39:40.292Z,6.16
2022-12-28T00:42:08.841Z,6.15
2022-12-28T00:44:38.849Z,5.90
2022-12-28T00:47:07.428Z,5.91
2022-12-28T00:49:35.904Z,5.49
2022-12-28T00:52:04.503Z,5.45
2022-12-28T00:54:32.930Z,5.87
2022-12-28T00:57:01.248Z,6.07
2022-12-28T00:59:29.569Z,6.09
2022-12-28T01:01:58.111Z,5.88
2022-12-28T01:04:26.563Z,6.08
2022-12-28T01:06:54.984Z,4.23
2022-12-28T01:09:23.360Z,4.67
2022-12-28T01:11:51.689Z,5.32
2022-12-28T01:14:20.103Z,5.20
2022-12-28T01:16:48.659Z,5.40
2022-12-28T01:19:20.357Z,5.15
2022-12-28T01:21:51.619Z,5.55
2022-12-28T01:24:20.068Z,5.65
2022-12-28T01:26:48.504Z,4.99
2022-12-28T01:29:16.869Z,5.04
2022-12-28T01:31:45.434Z,5.38
2022-12-28T01:34:14.328Z,5.38
2022-12-28T01:36:42.720Z,5.55
2022-12-28T01:39:11.102Z,5.56
2022-12-28T01:41:41.522Z,5.57
2022-12-28T01:44:10.692Z,5.69
2022-12-28T01:46:45.480Z,5.76
2022-12-28T01:49:37.345Z,5.86
2022-12-28T01:52:14.026Z,5.09
2022-12-28T01:54:51.244Z,5.60
2022-12-28T01:57:19.991Z,5.77
2022-12-28T01:59:52.285Z,6.00
2022-12-28T02:02:21.276Z,5.96
2022-12-28T02:04:49.832Z,5.64
2022-12-28T02:07:25.295Z,5.74
2022-12-28T02:10:40.049Z,5.59
2022-12-28T02:12:42.074Z,5.58
2022-12-28T02:15:10.814Z,4.97
2022-12-28T02:17:39.097Z,4.96
2022-12-28T02:20:07.935Z,5.04
2022-12-28T02:23:30.027Z,5.11
2022-12-28T02:26:20.592Z,4.52
2022-12-28T02:28:59.862Z,4.95
2022-12-28T02:31:35.102Z,4.87
2022-12-28T02:34:11.812Z,4.92
2022-12-28T02:36:43.430Z,4.59
2022-12-28T02:39:24.265Z,4.80
2022-12-28T02:41:52.662Z,4.66
2022-12-28T02:44:41.236Z,4.01
2022-12-28T02:47:34.749Z,4.33
2022-12-28T02:50:07.466Z,4.75
2022-12-28T02:52:58.794Z,5.10
2022-12-28T02:55:57.472Z,5.20
2022-12-28T02:58:42.574Z,5.35
2022-12-28T03:01:29.980Z,5.50
2022-12-28T03:04:15.483Z,5.52
2022-12-28T03:07:25.731Z,5.62
2022-12-28T03:10:16.697Z,5.46
2022-12-28T03:12:59.217Z,5.65
2022-12-28T03:15:45.761Z,5.85
2022-12-28T03:18:35.783Z,5.72
2022-12-28T03:21:24.090Z,5.65
2022-12-28T03:24:11.568Z,5.76
2022-12-28T03:27:08.981Z,5.61
2022-12-28T03:30:14.268Z,5.76
2022-12-28T03:32:43.214Z,5.70
2022-12-28T03:35:11.620Z,5.48
2022-12-28T03:37:50.261Z,5.77
2022-12-28T03:40:38.097Z,5.65
2022-12-28T03:43:30.945Z,5.57
2022-12-28T03:46:08.519Z,5.41
2022-12-28T03:48:37.800Z,5.19
2022-12-28T03:51:06.413Z,5.55
2022-12-28T03:53:43.338Z,5.58
2022-12-28T03:56:16.571Z,4.77
2022-12-28T03:58:47.195Z,4.96
2022-12-28T04:01:17.411Z,4.89
2022-12-28T04:03:46.372Z,5.36
2022-12-28T04:06:19.565Z,5.23
2022-12-28T04:08:48.017Z,5.39
2022-12-28T04:11:16.427Z,5.32
2022-12-28T04:13:50.353Z,5.55
2022-12-28T04:16:19.832Z,4.71
2022-12-28T04:18:48.203Z,4.98
2022-12-28T04:21:16.684Z,4.80
2022-12-28T04:23:46.616Z,5.00
2022-12-28T04:26:33.929Z,4.95
2022-12-28T04:29:02.866Z,4.88
2022-12-28T04:31:48.054Z,5.11
2022-12-28T04:34:20.461Z,4.64
2022-12-28T04:37:00.022Z,5.13
2022-12-28T04:39:29.073Z,4.98
2022-12-28T04:42:17.386Z,5.12
2022-12-28T04:44:45.722Z,5.12
2022-12-28T04:47:14.137Z,5.36
2022-12-28T04:49:42.472Z,5.47
2022-12-28T04:52:10.827Z,5.33
2022-12-28T04:54:39.100Z,5.55
2022-12-28T04:57:07.535Z,5.41
2022-12-28T04:59:36.113Z,5.46
2022-12-28T05:02:04.539Z,5.62
2022-12-28T05:04:33.091Z,5.53
2022-12-28T05:07:01.537Z,5.56
2022-12-28T05:09:29.937Z,5.51
2022-12-28T05:11:58.355Z,4.93
2022-12-28T05:14:26.715Z,4.87
2022-12-28T05:16:55.030Z,5.22
2022-12-28T05:19:23.419Z,5.20
2022-12-28T05:21:51.750Z,5.03
2022-12-28T05:24:20.828Z,5.22
2022-12-28T05:26:49.160Z,5.35
2022-12-28T05:29:17.539Z,4.77
2022-12-28T05:31:45.951Z,5.00
2022-12-28T05:34:14.373Z,4.57
2022-12-28T05:36:42.679Z,4.73
2022-12-28T05:39:11.109Z,4.89
2022-12-28T05:41:39.591Z,4.96
2022-12-28T05:44:08.061Z,4.63
2022-12-28T05:46:36.526Z,4.90
2022-12-28T05:49:04.889Z,4.82
2022-12-28T05:51:33.453Z,4.62
2022-12-28T05:54:04.677Z,4.83
2022-12-28T05:56:33.462Z,4.55
2022-12-28T05:59:06.117Z,4.30
2022-12-28T06:01:36.729Z,4.18
2022-12-28T06:04:09.519Z,4.17
2022-12-28T06:06:37.886Z,3.90
2022-12-28T06:09:06.330Z,4.22
2022-12-28T06:11:34.691Z,4.24
2022-12-28T06:14:04.240Z,4.45
2022-12-28T06:16:36.157Z,4.01
2022-12-28T06:19:06.445Z,4.31
2022-12-28T06:21:35.724Z,3.22
2022-12-28T06:24:04.935Z,3.42
2022-12-28T06:26:34.657Z,3.94
2022-12-28T06:29:03.591Z,3.82
2022-12-28T06:31:34.135Z,3.96
2022-12-28T06:34:03.172Z,4.16
2022-12-28T06:36:33.349Z,3.59
2022-12-28T06:39:02.059Z,2.59
2022-12-28T06:41:30.559Z,2.66
2022-12-28T06:43:59.060Z,2.96
2022-12-28T06:46:29.246Z,2.99
2022-12-28T06:48:57.838Z,3.71
2022-12-28T06:51:28.136Z,4.12
2022-12-28T06:53:56.730Z,3.84
2022-12-28T06:56:29.796Z,4.21
2022-12-28T06:59:02.887Z,4.18
2022-12-28T07:01:37.762Z,4.29
2022-12-28T07:04:07.089Z,4.34
2022-12-28T07:06:40.529Z,3.68
2022-12-28T07:09:14.117Z,3.60
2022-12-28T07:11:44.208Z,2.68
2022-12-28T07:14:12.566Z,2.68
2022-12-28T07:19:08.129Z,4.35
2022-12-28T07:21:37.841Z,4.47
2022-12-28T07:24:08.372Z,4.75
2022-12-28T07:26:38.782Z,4.91
2022-12-28T07:29:08.082Z,4.91
2022-12-28T07:31:44.262Z,4.96
2022-12-28T07:34:16.678Z,5.03
2022-12-28T07:36:45.157Z,4.99
2022-12-28T07:39:13.553Z,5.10
2022-12-28T07:41:42.011Z,4.77
2022-12-28T07:44:11.295Z,4.63
2022-12-28T07:46:39.828Z,5.00
2022-12-28T07:49:08.468Z,4.58
2022-12-28T07:51:37.968Z,4.22
2022-12-28T07:54:06.458Z,4.55
2022-12-28T07:59:03.577Z,4.93
2022-12-28T08:01:33.066Z,5.06
2022-12-28T08:04:03.265Z,4.83
2022-12-28T08:06:33.882Z,4.85
2022-12-28T08:09:25.466Z,5.05
2022-12-28T08:12:27.743Z,5.19
2022-12-28T08:15:24.935Z,5.18
2022-12-28T08:18:22.500Z,5.23
2022-12-28T08:21:25.995Z,5.41
2022-12-28T08:24:26.109Z,5.51
2022-12-28T08:27:22.914Z,5.65
2022-12-28T08:30:25.152Z,5.69
2022-12-28T08:33:26.555Z,5.93
2022-12-28T08:36:30.277Z,6.11
2022-12-28T08:39:31.029Z,6.17
2022-12-28T08:42:30.578Z,6.25
2022-12-28T08:45:29.562Z,6.39
2022-12-28T08:51:28.952Z,6.33
2022-12-28T08:54:30.964Z,6.33
2022-12-28T08:57:28.825Z,6.31
2022-12-28T09:00:31.600Z,6.47
2022-12-28T09:03:27.939Z,6.34
2022-12-28T09:06:31.749Z,6.49
2022-12-28T09:09:36.734Z,6.66
2022-12-28T09:12:36.187Z,6.79
2022-12-28T09:15:27.463Z,6.82
2022-12-28T09:17:56.837Z,6.86
2022-12-28T09:20:25.253Z,6.90
2022-12-28T09:22:53.686Z,6.77
2022-12-28T09:25:22.097Z,6.84
2022-12-28T09:27:53.349Z,6.68
2022-12-28T09:30:24.527Z,6.90
2022-12-28T09:33:15.052Z,6.83
2022-12-28T09:35:43.464Z,7.00
2022-12-28T09:38:11.879Z,7.12
2022-12-28T09:40:40.319Z,7.20
2022-12-28T09:43:11.775Z,7.26
2022-12-28T09:45:40.213Z,7.23
2022-12-28T09:48:11.375Z,7.31
2022-12-28T09:50:39.974Z,7.36
2022-12-28T09:53:27.183Z,7.43
2022-12-28T09:56:23.161Z,7.51
2022-12-28T09:58:52.503Z,7.54
2022-12-28T10:01:21.418Z,7.54
2022-12-28T10:03:49.942Z,7.49
2022-12-28T10:06:29.104Z,7.38
2022-12-28T10:08:58.176Z,7.43
2022-12-28T10:11:30.294Z,7.59
2022-12-28T10:14:01.099Z,7.61
2022-12-28T10:16:34.670Z,7.47
2022-12-28T10:19:03.386Z,7.38
2022-12-28T10:21:33.317Z,7.49
2022-12-28T10:26:52.428Z,7.54
2022-12-28T10:29:22.659Z,7.21
2022-12-28T10:32:03.250Z,7.47
2022-12-28T10:34:33.749Z,7.70
2022-12-28T10:37:16.422Z,7.78
2022-12-28T10:39:56.000Z,7.98
2022-12-28T10:42:35.413Z,8.12
2022-12-28T10:45:16.327Z,8.00
2022-12-28T10:47:49.203Z,8.11
2022-12-28T10:50:42.521Z,8.23
2022-12-28T10:53:24.229Z,8.42
2022-12-28T10:56:02.817Z,8.37
2022-12-28T10:58:33.258Z,8.33
2022-12-28T11:01:04.495Z,8.40
2022-12-28T11:03:35.840Z,8.35
2022-12-28T11:06:18.667Z,8.30
2022-12-28T11:09:13.216Z,8.37
2022-12-28T11:11:42.519Z,8.33
2022-12-28T11:14:18.991Z,8.58
2022-12-28T11:16:48.300Z,8.53
2022-12-28T11:19:16.967Z,8.60
2022-12-28T11:21:45.688Z,8.52
2022-12-28T11:24:18.325Z,8.47
2022-12-28T11:26:48.457Z,8.61
2022-12-28T11:29:18.579Z,8.55
2022-12-28T11:32:02.172Z,8.71
2022-12-28T11:34:30.749Z,8.43
2022-12-28T11:36:59.135Z,8.33
2022-12-28T11:39:27.498Z,8.06
2022-12-28T11:44:50.430Z,8.47
2022-12-28T11:47:36.908Z,8.47
2022-12-28T11:50:38.527Z,8.64
2022-12-28T11:53:31.949Z,8.17
2022-12-28T11:56:56.312Z,7.59
2022-12-28T11:59:32.444Z,8.13
2022-12-28T12:02:02.323Z,8.42
2022-12-28T12:04:35.937Z,8.58
2022-12-28T12:07:04.298Z,8.65
2022-12-28T12:09:39.181Z,8.64
2022-12-28T12:12:18.471Z,8.76
2022-12-28T12:15:04.530Z,8.70
2022-12-28T12:18:04.894Z,8.50
2022-12-28T12:20:39.943Z,8.50
2022-12-28T12:23:29.929Z,8.58
2022-12-28T12:25:59.589Z,8.59
2022-12-28T12:28:35.557Z,8.44
2022-12-28T12:31:07.556Z,8.44
2022-12-28T12:33:36.986Z,8.34
2022-12-28T12:36:08.619Z,8.18
2022-12-28T12:38:54.079Z,8.23
2022-12-28T12:41:32.063Z,8.05
2022-12-28T12:44:20.724Z,8.24
2022-12-28T12:47:26.521Z,8.58
2022-12-28T12:50:13.876Z,8.73
2022-12-28T12:52:43.555Z,8.80
2022-12-28T12:55:33.497Z,8.63
2022-12-28T12:58:13.870Z,8.40
2022-12-28T13:00:48.521Z,8.32
2022-12-28T13:03:35.732Z,8.43
2022-12-28T13:06:04.594Z,8.29
2022-12-28T13:08:43.565Z,8.51
2022-12-28T13:11:12.107Z,8.43
2022-12-28T13:13:41.325Z,8.41
2022-12-28T13:16:11.553Z,8.60
2022-12-28T13:18:45.015Z,8.71
2022-12-28T13:21:21.172Z,8.78
2022-12-28T13:23:50.214Z,8.76
2022-12-28T13:26:19.156Z,8.54
2022-12-28T13:28:54.748Z,8.47
2022-12-28T13:31:24.684Z,8.33
2022-12-28T13:33:57.150Z,8.56
2022-12-28T13:36:25.738Z,8.72
2022-12-28T13:39:13.488Z,8.88
2022-12-28T13:41:47.987Z,8.96
2022-12-28T13:44:19.135Z,9.02
2022-12-28T13:46:51.162Z,8.94
2022-12-28T13:49:19.870Z,8.85
2022-12-28T13:51:53.073Z,8.72
2022-12-28T13:54:25.333Z,8.36
2022-12-28T13:57:08.692Z,7.69
2022-12-28T13:59:43.107Z,8.09
2022-12-28T14:02:16.840Z,7.93
2022-12-28T14:04:53.877Z,8.08
2022-12-28T14:07:25.287Z,7.97
2022-12-28T14:09:53.919Z,6.93
2022-12-28T14:12:22.423Z,7.14
2022-12-28T14:14:50.989Z,7.40
2022-12-28T14:17:20.284Z,7.15
2022-12-28T14:19:48.908Z,7.19
2022-12-28T14:22:34.412Z,7.36
2022-12-28T14:25:05.629Z,7.28
2022-12-28T14:27:45.043Z,6.78
2022-12-28T14:30:42.729Z,6.57
2022-12-28T14:33:24.364Z,6.25
2022-12-28T14:35:56.022Z,6.50
2022-12-28T14:38:34.727Z,6.39
2022-12-28T14:41:03.509Z,6.85
2022-12-28T14:43:35.998Z,6.91
2022-12-28T14:46:35.619Z,6.84
2022-12-28T14:49:29.591Z,7.30
2022-12-28T14:52:18.705Z,7.56
2022-12-28T14:54:53.962Z,7.52
2022-12-28T14:57:35.643Z,7.37
2022-12-28T15:00:06.766Z,6.95
2022-12-28T15:02:35.389Z,6.43
2022-12-28T15:05:04.397Z,6.16
2022-12-28T15:07:32.973Z,6.25
2022-12-28T15:10:02.616Z,6.47
2022-12-28T15:12:31.260Z,6.07
2022-12-28T15:14:59.743Z,5.92
2022-12-28T15:17:33.428Z,5.41
2022-12-28T15:20:02.245Z,5.29
2022-12-28T15:22:30.793Z,5.04
2022-12-28T15:24:59.258Z,5.12
2022-12-28T15:27:27.765Z,4.66
2022-12-28T15:30:05.451Z,4.62
2022-12-28T15:32:35.362Z,4.78
2022-12-28T15:35:03.904Z,5.24
2022-12-28T15:37:32.442Z,5.64
2022-12-28T15:40:01.162Z,5.76
2022-12-28T15:42:32.472Z,5.60
2022-12-28T15:45:06.899Z,5.00
2022-12-28T15:47:36.639Z,4.67
2022-12-28T15:50:06.076Z,4.92
2022-12-28T15:52:34.712Z,5.17
2022-12-28T15:55:04.858Z,5.72
2022-12-28T15:57:34.413Z,5.66
2022-12-28T16:00:03.509Z,4.69
2022-12-28T16:02:33.813Z,4.63
2022-12-28T16:05:02.713Z,4.47
2022-12-28T16:07:31.896Z,4.57
2022-12-28T16:10:00.462Z,4.60
2022-12-28T16:12:28.938Z,4.85
2022-12-28T16:14:57.647Z,4.72
2022-12-28T16:17:27.334Z,5.42
2022-12-28T16:19:56.444Z,5.06
2022-12-28T16:22:25.793Z,5.07
2022-12-28T16:24:55.598Z,6.19
2022-12-28T16:27:25.223Z,6.15
2022-12-28T16:29:58.693Z,6.61
2022-12-28T16:32:28.707Z,6.36
2022-12-28T16:34:59.547Z,6.27
2022-12-28T16:37:28.151Z,5.87
2022-12-28T16:39:56.873Z,6.21
2022-12-28T16:42:26.493Z,5.87
2022-12-28T16:44:55.387Z,6.28
2022-12-28T16:47:23.962Z,6.30
2022-12-28T16:49:53.082Z,6.37
2022-12-28T16:52:23.029Z,6.43
2022-12-28T16:54:57.144Z,6.81
2022-12-28T16:57:28.138Z,6.76
2022-12-28T16:59:59.323Z,6.99
2022-12-28T17:02:28.271Z,7.05
2022-12-28T17:04:57.583Z,6.86
2022-12-28T17:07:26.204Z,6.92
2022-12-28T17:09:57.431Z,6.97
2022-12-28T17:12:26.407Z,7.06
2022-12-28T17:14:56.353Z,6.94
2022-12-28T17:17:27.695Z,7.17
2022-12-28T17:19:57.251Z,7.20
2022-12-28T17:22:28.762Z,7.27
2022-12-28T17:25:01.092Z,7.28
2022-12-28T17:27:33.945Z,7.19
2022-12-28T17:30:06.952Z,6.88
2022-12-28T17:32:40.878Z,6.84
2022-12-28T17:35:11.289Z,7.01
2022-12-28T17:37:41.949Z,7.11
2022-12-28T17:40:15.779Z,7.19
2022-12-28T17:42:46.741Z,6.99
2022-12-28T17:45:18.492Z,7.05
2022-12-28T17:47:49.355Z,6.81
2022-12-28T17:50:42.877Z,6.50
2022-12-28T17:53:21.038Z,6.21
2022-12-28T17:55:52.415Z,5.86
2022-12-28T17:58:24.635Z,5.71
2022-12-28T18:00:57.837Z,5.79
2022-12-28T18:03:34.169Z,5.96
2022-12-28T18:06:04.998Z,5.86
2022-12-28T18:08:33.795Z,5.73
2022-12-28T18:11:03.696Z,5.21
2022-12-28T18:13:35.843Z,5.67
2022-12-28T18:16:06.002Z,4.96
2022-12-28T18:18:35.954Z,5.44
2022-12-28T18:21:14.046Z,5.72
2022-12-28T18:23:51.977Z,6.24
2022-12-28T18:26:27.846Z,6.27
2022-12-28T18:29:00.835Z,6.44
2022-12-28T18:31:34.113Z,6.48
2022-12-28T18:34:06.816Z,6.65
2022-12-28T18:36:36.103Z,6.42
2022-12-28T18:39:07.910Z,6.68
2022-12-28T18:41:43.500Z,6.45
2022-12-28T18:44:16.777Z,6.42
2022-12-28T18:46:46.245Z,6.30
2022-12-28T18:49:15.089Z,6.66
2022-12-28T18:51:47.549Z,6.60
2022-12-28T18:54:18.295Z,6.54
2022-12-28T18:56:49.421Z,6.40
2022-12-28T18:59:22.277Z,6.20
2022-12-28T19:02:14.326Z,5.30
2022-12-28T19:04:48.017Z,5.52
2022-12-28T19:07:19.926Z,5.65
2022-12-28T19:10:12.946Z,5.94
2022-12-28T19:12:54.153Z,6.08
2022-12-28T19:15:25.744Z,6.26
2022-12-28T19:17:54.767Z,6.42
2022-12-28T19:20:24.089Z,6.13
2022-12-28T19:22:52.571Z,6.45
2022-12-28T19:25:20.974Z,6.59
2022-12-28T19:27:54.054Z,6.57
2022-12-28T19:30:28.813Z,6.08
2022-12-28T19:33:00.329Z,6.01
2022-12-28T19:35:33.587Z,6.24
2022-12-28T19:38:03.640Z,6.27
2022-12-28T19:40:33.745Z,6.42
2022-12-28T19:43:03.221Z,6.54
2022-12-28T19:45:35.293Z,6.36
2022-12-28T19:48:09.207Z,6.24
2022-12-28T19:50:41.719Z,6.41
2022-12-28T19:53:14.388Z,6.40
2022-12-28T19:55:47.727Z,5.65
2022-12-28T19:58:21.965Z,6.01
2022-12-28T20:00:53.776Z,5.83
2022-12-28T20:03:26.028Z,5.54
2022-12-28T20:06:10.617Z,5.18
2022-12-28T20:08:41.933Z,5.41
2022-12-28T20:11:11.197Z,5.38
2022-12-28T20:13:43.648Z,4.88
2022-12-28T20:16:17.284Z,4.88
2022-12-28T20:18:50.738Z,4.96
2022-12-28T20:21:21.824Z,4.81
2022-12-28T20:23:52.329Z,5.39
2022-12-28T20:26:22.615Z,5.35
2022-12-28T20:28:53.521Z,5.41
2022-12-28T20:31:22.789Z,5.43
2022-12-28T20:33:51.867Z,5.58
2022-12-28T20:36:26.486Z,4.96
2022-12-28T20:38:55.764Z,5.35
2022-12-28T20:41:47.263Z,5.84
2022-12-28T20:44:29.879Z,5.71
2022-12-28T20:46:59.595Z,6.07
2022-12-28T20:49:28.237Z,6.11
2022-12-28T20:51:57.420Z,6.13
2022-12-28T20:54:27.157Z,5.94
2022-12-28T20:56:58.576Z,5.95
2022-12-28T20:59:27.102Z,6.19
2022-12-28T21:01:55.890Z,6.16
2022-12-28T21:04:26.351Z,6.10
2022-12-28T21:06:55.552Z,6.20
2022-12-28T21:09:25.670Z,5.48
2022-12-28T21:11:56.497Z,5.90
2022-12-28T21:14:25.990Z,5.91
2022-12-28T21:16:54.801Z,6.03
2022-12-28T21:19:23.310Z,6.04
2022-12-28T21:21:51.749Z,5.78
2022-12-28T21:24:22.693Z,5.93
2022-12-28T21:26:51.128Z,5.84
2022-12-28T21:29:25.553Z,5.88
2022-12-28T21:31:55.155Z,5.71
2022-12-28T21:34:23.961Z,4.98
2022-12-28T21:36:52.349Z,4.56
2022-12-28T21:39:20.907Z,4.06
2022-12-28T21:41:49.654Z,3.92
2022-12-28T21:44:23.341Z,3.64
2022-12-28T21:46:53.088Z,3.90
2022-12-28T21:49:21.677Z,4.84
2022-12-28T21:51:50.484Z,5.00
2022-12-28T21:54:20.656Z,5.15
2022-12-28T21:56:55.775Z,5.17
2022-12-28T21:59:25.025Z,5.12
2022-12-28T22:02:12.370Z,4.86
2022-12-28T22:05:02.912Z,5.01
2022-12-28T22:07:32.256Z,5.24
2022-12-28T22:10:19.128Z,5.22
2022-12-28T22:12:47.594Z,5.26
2022-12-28T22:15:36.765Z,5.41
2022-12-28T22:18:52.641Z,5.41
2022-12-28T22:21:10.434Z,5.44
2022-12-28T22:23:40.145Z,5.41
2022-12-28T22:26:08.469Z,5.44
2022-12-28T22:28:37.497Z,5.09
2022-12-28T22:31:06.716Z,4.77
2022-12-28T22:33:35.101Z,4.94
2022-12-28T22:36:14.170Z,4.51
2022-12-28T22:38:42.567Z,4.71
2022-12-28T22:41:11.017Z,4.90
2022-12-28T22:43:39.490Z,4.90
2022-12-28T22:46:09.468Z,4.65
2022-12-28T22:48:38.191Z,4.70
2022-12-28T22:51:08.439Z,4.06
2022-12-28T22:53:38.028Z,4.54
2022-12-28T22:56:08.216Z,4.16
2022-12-28T22:58:37.938Z,4.35
2022-12-28T23:01:16.756Z,3.95
2022-12-28T23:03:46.259Z,4.04
2022-12-28T23:06:16.082Z,4.26
2022-12-28T23:08:44.916Z,3.91
2022-12-28T23:11:38.374Z,4.17
2022-12-28T23:14:27.055Z,4.08
2022-12-28T23:16:55.644Z,3.56
2022-12-28T23:19:42.714Z,3.98
2022-12-28T23:22:32.712Z,3.44
2022-12-28T23:25:19.465Z,3.87
2022-12-28T23:27:48.174Z,3.06
2022-12-28T23:30:18.416Z,3.76
2022-12-28T23:32:50.729Z,3.65
2022-12-28T23:35:19.635Z,4.00
2022-12-28T23:37:48.069Z,3.78
2022-12-28T23:40:17.439Z,3.76
2022-12-28T23:42:45.813Z,3.71
2022-12-28T23:45:15.784Z,3.80
2022-12-28T23:47:44.630Z,3.82
2022-12-28T23:50:13.615Z,3.82
2022-12-28T23:52:42.018Z,3.98
2022-12-28T23:55:10.752Z,3.84
2022-12-28T23:57:39.243Z,3.94
